createdAt,value
2023-03-06T00:03:20.022Z,7.50
2023-03-06T00:06:44.848Z,7.50
2023-03-06T00:10:09.495Z,7.10
2023-03-06T00:13:34.978Z,7.10
2023-03-06T00:16:58.474Z,7.00
2023-03-06T00:20:23.778Z,7.00
2023-03-06T00:23:48.519Z,7.00
2023-03-06T00:27:11.980Z,7.00
2023-03-06T00:30:35.680Z,7.00
2023-03-06T00:33:59.076Z,6.90
2023-03-06T00:37:23.945Z,6.90
2023-03-06T00:40:49.281Z,6.90
2023-03-06T00:44:12.840Z,6.90
2023-03-06T00:47:36.691Z,6.90
2023-03-06T00:51:00.299Z,6.90
2023-03-06T00:54:23.773Z,6.90
2023-03-06T00:57:48.779Z,6.90
2023-03-06T01:01:12.569Z,6.80
2023-03-06T01:04:37.714Z,6.80
2023-03-06T01:08:01.538Z,7.60
2023-03-06T01:11:26.268Z,6.90
2023-03-06T01:14:52.291Z,6.90
2023-03-06T01:18:16.777Z,6.90
2023-03-06T01:21:40.871Z,6.90
2023-03-06T01:25:05.176Z,6.90
2023-03-06T01:28:29.284Z,6.90
2023-03-06T01:31:54.174Z,6.90
2023-03-06T01:35:18.319Z,6.90
2023-03-06T01:38:42.443Z,6.90
2023-03-06T01:42:06.712Z,6.90
2023-03-06T01:46:27.055Z,6.90
2023-03-06T01:49:52.244Z,6.90
2023-03-06T01:53:16.815Z,6.90
2023-03-06T01:56:44.988Z,6.90
2023-03-06T02:00:12.803Z,6.90
2023-03-06T02:03:42.432Z,6.90
2023-03-06T02:07:09.330Z,6.90
2023-03-06T02:10:33.844Z,6.80
2023-03-06T02:13:57.550Z,6.80
2023-03-06T02:17:24.301Z,6.80
2023-03-06T02:20:53.081Z,7.10
2023-03-06T02:24:33.019Z,6.70
2023-03-06T02:27:57.858Z,6.70
2023-03-06T02:31:25.742Z,6.70
2023-03-06T02:34:57.589Z,6.70
2023-03-06T02:38:27.322Z,6.70
2023-03-06T02:41:51.095Z,6.70
2023-03-06T02:45:23.544Z,6.70
2023-03-06T02:48:47.116Z,6.70
2023-03-06T02:52:10.677Z,6.70
2023-03-06T02:55:37.189Z,6.70
2023-03-06T02:59:00.752Z,6.70
2023-03-06T03:02:26.243Z,6.70
2023-03-06T03:05:49.829Z,6.60
2023-03-06T03:09:20.468Z,6.60
2023-03-06T03:12:44.742Z,7.00
2023-03-06T03:16:15.553Z,6.60
2023-03-06T03:19:40.698Z,6.60
2023-03-06T03:23:04.523Z,6.60
2023-03-06T03:26:29.257Z,7.00
2023-03-06T03:30:05.018Z,6.60
2023-03-06T03:33:28.641Z,6.60
2023-03-06T03:36:53.770Z,6.60
2023-03-06T03:40:17.325Z,6.60
2023-03-06T03:43:40.985Z,6.60
2023-03-06T03:47:06.241Z,6.60
2023-03-06T03:50:30.116Z,6.60
2023-03-06T03:53:56.742Z,6.60
2023-03-06T03:57:21.860Z,6.60
2023-03-06T04:00:48.595Z,6.60
2023-03-06T04:04:12.299Z,6.60
2023-03-06T04:07:37.282Z,6.60
2023-03-06T04:11:03.286Z,6.60
2023-03-06T04:14:29.029Z,6.80
2023-03-06T04:17:53.503Z,6.50
2023-03-06T04:21:20.723Z,6.50
2023-03-06T04:24:44.593Z,6.50
2023-03-06T04:28:10.479Z,6.50
2023-03-06T04:31:34.289Z,6.50
2023-03-06T04:34:58.475Z,6.50
2023-03-06T04:38:23.982Z,6.50
2023-03-06T04:41:47.751Z,6.50
2023-03-06T04:45:13.322Z,6.50
2023-03-06T04:48:36.873Z,6.50
2023-03-06T04:52:00.388Z,6.50
2023-03-06T04:55:23.815Z,6.50
2023-03-06T04:58:47.580Z,6.50
2023-03-06T05:02:12.581Z,6.50
2023-03-06T05:05:36.212Z,6.50
2023-03-06T05:08:59.664Z,6.50
2023-03-06T05:12:23.426Z,6.50
2023-03-06T05:15:46.920Z,6.50
2023-03-06T05:19:11.722Z,6.50
2023-03-06T05:22:35.492Z,6.50
2023-03-06T05:25:59.678Z,6.50
2023-03-06T05:29:23.628Z,7.60
2023-03-06T05:32:47.126Z,6.40
2023-03-06T05:36:12.149Z,6.40
2023-03-06T05:39:36.235Z,6.30
2023-03-06T05:42:59.733Z,6.40
2023-03-06T05:46:23.649Z,6.40
2023-03-06T05:49:47.233Z,6.30
2023-03-06T05:53:12.161Z,6.30
2023-03-06T05:56:36.219Z,6.30
2023-03-06T05:59:59.653Z,6.30
2023-03-06T06:03:23.885Z,6.30
2023-03-06T06:06:47.496Z,6.30
2023-03-06T06:10:13.630Z,6.30
2023-03-06T06:13:38.532Z,6.30
2023-03-06T06:17:02.399Z,6.30
2023-03-06T06:20:27.529Z,6.30
2023-03-06T06:23:51.052Z,6.30
2023-03-06T06:27:15.912Z,6.30
2023-03-06T06:30:39.367Z,6.30
2023-03-06T06:34:02.899Z,6.50
2023-03-06T06:37:26.965Z,6.30
2023-03-06T06:41:26.856Z,6.30
2023-03-06T06:44:35.965Z,6.30
2023-03-06T06:47:59.571Z,6.40
2023-03-06T06:51:23.733Z,6.40
2023-03-06T06:54:47.809Z,6.40
2023-03-06T06:58:11.284Z,6.40
2023-03-06T07:01:36.268Z,6.40
2023-03-06T07:05:04.572Z,6.40
2023-03-06T07:08:29.206Z,6.40
2023-03-06T07:11:52.805Z,6.50
2023-03-06T07:15:18.537Z,6.50
2023-03-06T07:18:44.010Z,7.00
2023-03-06T07:22:07.606Z,6.60
2023-03-06T07:25:31.559Z,6.60
2023-03-06T07:28:55.659Z,6.60
2023-03-06T07:32:20.738Z,7.10
2023-03-06T07:35:46.059Z,6.70
2023-03-06T07:39:10.237Z,6.70
2023-03-06T07:42:34.229Z,6.80
2023-03-06T07:46:00.667Z,6.80
2023-03-06T07:49:24.148Z,6.80
2023-03-06T07:52:50.071Z,6.90
2023-03-06T07:56:14.465Z,6.90
2023-03-06T07:59:38.198Z,7.00
2023-03-06T08:03:01.961Z,7.00
2023-03-06T08:06:28.392Z,7.00
2023-03-06T08:09:53.255Z,7.10
2023-03-06T08:13:16.847Z,7.10
2023-03-06T08:16:40.587Z,7.30
2023-03-06T08:20:04.399Z,7.20
2023-03-06T08:23:28.065Z,7.20
2023-03-06T08:26:52.881Z,7.30
2023-03-06T08:30:17.168Z,7.40
2023-03-06T08:33:41.739Z,7.40
2023-03-06T08:37:05.210Z,7.50
2023-03-06T08:40:30.494Z,7.60
2023-03-06T08:43:55.429Z,7.70
2023-03-06T08:47:19.419Z,7.70
2023-03-06T08:50:43.096Z,7.80
2023-03-06T08:54:06.679Z,7.90
2023-03-06T08:57:31.028Z,8.00
2023-03-06T09:00:56.177Z,8.80
2023-03-06T09:04:20.089Z,8.20
2023-03-06T09:07:43.665Z,8.30
2023-03-06T09:11:07.190Z,8.50
2023-03-06T09:14:32.009Z,9.40
2023-03-06T09:17:57.267Z,8.60
2023-03-06T09:21:21.753Z,8.70
2023-03-06T09:24:45.573Z,8.70
2023-03-06T09:28:11.677Z,8.70
2023-03-06T09:31:35.464Z,8.70
2023-03-06T09:35:00.446Z,8.70
2023-03-06T09:38:28.366Z,8.70
2023-03-06T09:41:53.344Z,8.60
2023-03-06T09:45:16.909Z,8.60
2023-03-06T09:48:56.771Z,8.60
2023-03-06T09:52:47.100Z,8.60
2023-03-06T09:56:17.756Z,8.70
2023-03-06T09:59:47.644Z,8.50
2023-03-06T10:03:24.631Z,8.50
2023-03-06T10:06:51.655Z,8.40
2023-03-06T10:10:23.980Z,8.50
2023-03-06T10:13:52.567Z,8.40
2023-03-06T10:17:21.357Z,8.50
2023-03-06T10:21:00.954Z,8.50
2023-03-06T10:24:47.808Z,5.10
2023-03-06T10:28:19.102Z,8.60
2023-03-06T10:31:49.260Z,8.60
2023-03-06T10:35:19.947Z,8.70
2023-03-06T10:38:44.803Z,8.70
2023-03-06T10:42:11.225Z,8.60
2023-03-06T10:45:49.418Z,8.60
2023-03-06T10:49:29.916Z,8.70
2023-03-06T10:53:04.459Z,8.60
2023-03-06T10:56:31.904Z,8.50
2023-03-06T10:59:58.452Z,8.50
2023-03-06T11:03:25.559Z,8.60
2023-03-06T11:07:04.942Z,8.50
2023-03-06T11:10:32.248Z,8.50
2023-03-06T11:14:00.125Z,8.60
2023-03-06T11:17:32.026Z,8.60
2023-03-06T11:20:58.057Z,8.60
2023-03-06T11:24:22.810Z,8.70
2023-03-06T11:27:56.639Z,8.80
2023-03-06T11:31:25.215Z,8.80
2023-03-06T11:34:54.305Z,9.00
2023-03-06T11:38:26.479Z,9.00
2023-03-06T11:42:02.352Z,9.10
2023-03-06T11:45:34.618Z,9.30
2023-03-06T11:49:07.466Z,9.30
2023-03-06T11:52:45.536Z,9.40
2023-03-06T11:56:31.713Z,9.60
2023-03-06T12:00:23.412Z,9.50
2023-03-06T12:04:24.124Z,9.60
2023-03-06T12:07:55.843Z,9.70
2023-03-06T12:11:26.281Z,9.90
2023-03-06T12:15:16.096Z,10.00
2023-03-06T12:18:57.442Z,10.00
2023-03-06T12:22:57.408Z,10.10
2023-03-06T12:26:51.035Z,10.10
2023-03-06T12:30:51.935Z,10.20
2023-03-06T12:34:33.151Z,10.20
2023-03-06T12:38:16.078Z,10.30
2023-03-06T12:41:55.503Z,10.30
2023-03-06T12:45:32.928Z,10.30
2023-03-06T12:49:07.361Z,10.20
2023-03-06T12:52:34.582Z,10.20
2023-03-06T12:56:01.384Z,10.10
2023-03-06T12:59:44.464Z,10.10
2023-03-06T13:03:18.801Z,10.00
2023-03-06T13:07:06.300Z,10.00
2023-03-06T13:10:34.574Z,10.00
2023-03-06T13:13:58.529Z,10.00
2023-03-06T13:17:40.372Z,10.10
2023-03-06T13:21:05.200Z,10.00
2023-03-06T13:24:32.825Z,10.00
2023-03-06T13:28:04.888Z,10.00
2023-03-06T13:32:16.849Z,9.90
2023-03-06T13:35:56.674Z,9.80
2023-03-06T13:39:20.203Z,9.70
2023-03-06T13:43:13.155Z,9.70
2023-03-06T13:46:39.002Z,9.60
2023-03-06T13:50:32.038Z,9.60
2023-03-06T13:54:33.837Z,9.70
2023-03-06T13:58:32.406Z,9.70
2023-03-06T14:02:16.769Z,9.70
2023-03-06T14:05:47.147Z,9.70
2023-03-06T14:09:24.498Z,9.60
2023-03-06T14:13:04.116Z,9.60
2023-03-06T14:16:40.553Z,9.60
2023-03-06T14:20:17.221Z,9.60
2023-03-06T14:23:45.813Z,8.30
2023-03-06T14:27:19.485Z,9.50
2023-03-06T14:30:51.238Z,9.50
2023-03-06T14:34:22.167Z,9.50
2023-03-06T14:37:52.379Z,9.50
2023-03-06T14:41:26.672Z,9.50
2023-03-06T14:45:02.734Z,9.50
2023-03-06T14:48:39.091Z,9.40
2023-03-06T14:52:03.094Z,9.40
2023-03-06T14:55:30.429Z,9.40
2023-03-06T14:59:00.663Z,10.90
2023-03-06T15:02:29.027Z,9.30
2023-03-06T15:05:53.771Z,9.20
2023-03-06T15:09:24.361Z,9.20
2023-03-06T15:12:48.042Z,9.10
2023-03-06T15:16:30.352Z,9.00
2023-03-06T15:19:55.932Z,9.80
2023-03-06T15:23:26.010Z,9.00
2023-03-06T15:27:02.635Z,9.00
2023-03-06T15:30:30.720Z,9.00
2023-03-06T15:34:25.653Z,9.00
2023-03-06T15:37:49.377Z,9.00
2023-03-06T15:41:24.373Z,8.90
2023-03-06T15:44:51.385Z,8.90
2023-03-06T15:48:19.260Z,8.90
2023-03-06T15:51:44.213Z,8.80
2023-03-06T15:55:08.422Z,8.80
2023-03-06T15:58:35.263Z,8.80
2023-03-06T16:02:04.258Z,8.90
2023-03-06T16:05:29.007Z,8.70
2023-03-06T16:08:54.947Z,8.60
2023-03-06T16:12:21.785Z,8.50
2023-03-06T16:15:50.340Z,8.50
2023-03-06T16:19:26.002Z,8.40
2023-03-06T16:22:51.185Z,8.30
2023-03-06T16:26:24.080Z,8.30
2023-03-06T16:29:47.692Z,8.20
2023-03-06T16:33:12.664Z,8.20
2023-03-06T16:36:36.165Z,9.00
2023-03-06T16:39:59.846Z,8.10
2023-03-06T16:43:25.155Z,8.10
2023-03-06T16:46:51.735Z,8.10
2023-03-06T16:50:25.887Z,8.10
2023-03-06T16:53:50.784Z,8.10
2023-03-06T16:57:15.766Z,8.00
2023-03-06T17:00:45.062Z,8.10
2023-03-06T17:04:15.857Z,8.10
2023-03-06T17:07:40.663Z,8.00
2023-03-06T17:11:07.363Z,8.00
2023-03-06T17:14:33.794Z,8.00
2023-03-06T17:17:59.539Z,8.00
2023-03-06T17:21:26.582Z,8.00
2023-03-06T17:24:52.056Z,7.90
2023-03-06T17:28:15.689Z,7.90
2023-03-06T17:31:39.441Z,7.90
2023-03-06T17:35:05.139Z,8.10
2023-03-06T17:38:29.368Z,7.80
2023-03-06T17:41:53.034Z,7.80
2023-03-06T17:45:16.791Z,7.70
2023-03-06T17:48:41.673Z,7.70
2023-03-06T17:52:07.474Z,7.70
2023-03-06T17:55:31.351Z,7.70
2023-03-06T17:58:55.324Z,7.60
2023-03-06T18:02:18.943Z,7.60
2023-03-06T18:05:42.862Z,7.60
2023-03-06T18:09:10.033Z,7.50
2023-03-06T18:12:33.618Z,7.50
2023-03-06T18:15:57.406Z,9.70
2023-03-06T18:19:21.209Z,7.50
2023-03-06T18:22:44.815Z,7.50
2023-03-06T18:26:13.086Z,7.50
2023-03-06T18:29:37.267Z,7.50
2023-03-06T18:33:01.109Z,7.50
2023-03-06T18:36:27.574Z,7.40
2023-03-06T18:39:51.037Z,7.40
2023-03-06T18:43:16.015Z,7.40
2023-03-06T18:46:40.183Z,7.40
2023-03-06T18:50:03.712Z,7.40
2023-03-06T18:53:27.459Z,7.40
2023-03-06T18:56:51.175Z,7.40
2023-03-06T19:00:18.061Z,7.40
2023-03-06T19:03:42.265Z,7.40
2023-03-06T19:07:06.367Z,7.30
2023-03-06T19:10:31.206Z,7.40
2023-03-06T19:13:55.371Z,7.90
2023-03-06T19:17:20.307Z,7.30
2023-03-06T19:20:44.325Z,8.20
2023-03-06T19:24:13.334Z,7.30
2023-03-06T19:27:37.891Z,7.30
2023-03-06T19:31:01.904Z,7.30
2023-03-06T19:34:26.850Z,7.30
2023-03-06T19:37:50.706Z,7.30
2023-03-06T19:41:15.437Z,7.30
2023-03-06T19:44:38.902Z,7.30
2023-03-06T19:48:04.924Z,7.30
2023-03-06T19:51:30.410Z,7.30
2023-03-06T19:54:55.178Z,7.30
2023-03-06T19:58:18.655Z,7.30
2023-03-06T20:01:42.211Z,7.30
2023-03-06T20:05:09.304Z,7.30
2023-03-06T20:08:34.226Z,7.30
2023-03-06T20:11:57.951Z,7.30
2023-03-06T20:15:22.162Z,7.30
2023-03-06T20:18:46.404Z,7.30
2023-03-06T20:22:09.827Z,7.30
2023-03-06T20:25:36.947Z,7.30
2023-03-06T20:29:00.850Z,7.40
2023-03-06T20:32:24.319Z,7.40
2023-03-06T20:35:47.784Z,7.40
2023-03-06T20:39:15.335Z,7.40
2023-03-06T20:42:40.145Z,7.80
2023-03-06T20:46:05.955Z,7.30
2023-03-06T20:49:29.584Z,7.30
2023-03-06T20:52:55.548Z,7.30
2023-03-06T20:56:22.614Z,7.30
2023-03-06T20:59:47.446Z,7.30
2023-03-06T21:03:11.186Z,7.20
2023-03-06T21:06:34.673Z,7.20
2023-03-06T21:09:58.216Z,7.20
2023-03-06T21:13:21.698Z,7.20
2023-03-06T21:16:47.050Z,7.10
2023-03-06T21:20:12.213Z,7.10
2023-03-06T21:23:35.858Z,7.10
2023-03-06T21:26:59.316Z,7.10
2023-03-06T21:30:23.040Z,7.10
2023-03-06T21:33:49.665Z,7.10
2023-03-06T21:37:13.215Z,7.10
2023-03-06T21:40:36.754Z,7.10
2023-03-06T21:44:02.817Z,7.10
2023-03-06T21:47:26.356Z,7.10
2023-03-06T21:50:51.157Z,7.10
2023-03-06T21:54:14.638Z,7.10
2023-03-06T21:57:38.036Z,7.10
2023-03-06T22:01:01.924Z,7.00
2023-03-06T22:04:26.093Z,7.00
2023-03-06T22:07:51.057Z,7.00
2023-03-06T22:11:17.736Z,7.00
2023-03-06T22:14:41.449Z,7.00
2023-03-06T22:18:05.021Z,7.00
2023-03-06T22:21:28.519Z,6.90
2023-03-06T22:24:53.462Z,6.90
2023-03-06T22:28:18.483Z,6.90
2023-03-06T22:31:42.034Z,6.90
2023-03-06T22:35:06.654Z,6.90
2023-03-06T22:38:30.160Z,6.90
2023-03-06T22:41:58.211Z,6.90
2023-03-06T22:45:21.695Z,6.90
2023-03-06T22:48:46.014Z,6.90
2023-03-06T22:52:09.884Z,6.90
2023-03-06T22:55:35.942Z,6.80
2023-03-06T22:59:01.266Z,6.80
2023-03-06T23:02:24.953Z,6.80
2023-03-06T23:05:48.531Z,6.80
2023-03-06T23:09:17.596Z,6.80
2023-03-06T23:12:59.716Z,6.80
2023-03-06T23:16:42.892Z,6.70
2023-03-06T23:20:26.145Z,6.70
2023-03-06T23:24:08.929Z,6.70
2023-03-06T23:27:33.054Z,7.00
2023-03-06T23:30:57.316Z,6.70
2023-03-06T23:34:22.226Z,6.70
2023-03-06T23:37:46.041Z,6.70
2023-03-06T23:41:13.680Z,6.70
2023-03-06T23:44:37.172Z,7.20
2023-03-06T23:48:00.836Z,6.70
2023-03-06T23:51:25.829Z,6.60
2023-03-06T23:54:50.170Z,6.60
2023-03-06T23:58:15.496Z,6.60
